createdAt,value
2018-05-13T00:00:42.816Z,0
2018-05-13T00:01:43.390Z,0
2018-05-13T00:02:43.965Z,0
2018-05-13T00:03:44.550Z,0
2018-05-13T00:04:45.125Z,0
2018-05-13T00:05:45.700Z,0
2018-05-13T00:06:46.274Z,0
2018-05-13T00:07:46.848Z,0
2018-05-13T00:08:47.422Z,0
2018-05-13T00:09:47.997Z,0
2018-05-13T00:10:48.581Z,0
2018-05-13T00:11:49.158Z,0
2018-05-13T00:12:49.735Z,0
2018-05-13T00:13:50.320Z,0
2018-05-13T00:14:50.903Z,0
2018-05-13T00:15:51.479Z,0
2018-05-13T00:16:52.054Z,0
2018-05-13T00:17:52.632Z,0
2018-05-13T00:18:53.216Z,0
2018-05-13T00:19:53.792Z,0
2018-05-13T00:20:54.365Z,0
2018-05-13T00:21:54.951Z,0
2018-05-13T00:22:55.538Z,0
2018-05-13T00:23:56.122Z,0
2018-05-13T00:24:56.696Z,0
2018-05-13T00:25:57.271Z,0
2018-05-13T00:26:57.847Z,0
2018-05-13T00:27:58.433Z,0
2018-05-13T00:28:59.007Z,0
2018-05-13T00:29:59.581Z,0
2018-05-13T00:31:00.156Z,0
2018-05-13T00:32:00.730Z,0
2018-05-13T00:33:01.320Z,0
2018-05-13T00:34:01.893Z,0
2018-05-13T00:35:02.466Z,0
2018-05-13T00:36:03.042Z,0
2018-05-13T00:37:03.628Z,0
2018-05-13T00:38:04.209Z,0
2018-05-13T00:39:04.780Z,0
2018-05-13T00:40:05.354Z,0
2018-05-13T00:41:05.929Z,0
2018-05-13T00:42:06.503Z,0
2018-05-13T00:43:07.077Z,0
2018-05-13T00:44:07.651Z,0
2018-05-13T00:45:08.226Z,0
2018-05-13T00:46:08.803Z,0
2018-05-13T00:47:09.380Z,0
2018-05-13T00:48:09.954Z,0
2018-05-13T00:49:10.530Z,0
2018-05-13T00:50:11.104Z,0
2018-05-13T00:51:11.679Z,0
2018-05-13T00:52:12.250Z,0
2018-05-13T00:53:12.826Z,0
2018-05-13T00:54:13.399Z,0
2018-05-13T00:55:13.975Z,0
2018-05-13T00:56:14.549Z,0
2018-05-13T00:57:15.126Z,0
2018-05-13T00:58:15.700Z,0
2018-05-13T00:59:16.277Z,0
2018-05-13T01:00:16.853Z,0
2018-05-13T01:01:17.427Z,0
2018-05-13T01:02:18.014Z,0
2018-05-13T01:03:18.582Z,0
2018-05-13T01:04:19.152Z,0
2018-05-13T01:05:19.724Z,0
2018-05-13T01:06:20.301Z,0
2018-05-13T01:07:20.876Z,0
2018-05-13T01:08:21.453Z,0
2018-05-13T01:09:22.026Z,0
2018-05-13T01:10:22.601Z,0
2018-05-13T01:11:23.178Z,0
2018-05-13T01:12:23.748Z,0
2018-05-13T01:13:24.323Z,0
2018-05-13T01:14:24.899Z,0
2018-05-13T01:15:25.471Z,0
2018-05-13T01:16:26.046Z,0
2018-05-13T01:17:26.622Z,0
2018-05-13T01:18:27.197Z,0
2018-05-13T01:19:27.772Z,0
2018-05-13T01:20:28.355Z,0
2018-05-13T01:21:28.931Z,0
2018-05-13T01:22:30.923Z,0
2018-05-13T01:23:31.508Z,0
2018-05-13T01:24:32.083Z,0
2018-05-13T01:25:32.660Z,0
2018-05-13T01:26:33.235Z,0
2018-05-13T01:27:33.807Z,0
2018-05-13T01:28:34.381Z,0
2018-05-13T01:29:34.956Z,0
2018-05-13T01:30:35.530Z,0
2018-05-13T01:31:36.105Z,0
2018-05-13T01:32:36.688Z,0
2018-05-13T01:33:37.262Z,0
2018-05-13T01:34:37.837Z,0
2018-05-13T01:35:38.411Z,0
2018-05-13T01:36:38.985Z,0
2018-05-13T01:37:39.558Z,0
2018-05-13T01:38:40.132Z,0
2018-05-13T01:39:40.706Z,0
2018-05-13T01:40:41.291Z,0
2018-05-13T01:41:41.867Z,0
2018-05-13T01:42:42.441Z,0
2018-05-13T01:43:43.026Z,0
2018-05-13T01:44:43.601Z,0
2018-05-13T01:45:44.176Z,0
2018-05-13T01:46:44.750Z,0
2018-05-13T01:47:45.324Z,0
2018-05-13T01:48:45.898Z,0
2018-05-13T01:49:46.472Z,0
2018-05-13T01:50:47.045Z,0
2018-05-13T01:51:47.618Z,0
2018-05-13T01:52:48.192Z,0
2018-05-13T01:53:48.815Z,0
2018-05-13T01:54:49.389Z,0
2018-05-13T01:55:49.965Z,0
2018-05-13T01:56:50.540Z,0
2018-05-13T01:57:51.116Z,0
2018-05-13T01:58:51.698Z,0
2018-05-13T01:59:52.272Z,0
2018-05-13T02:00:52.848Z,0
2018-05-13T02:01:53.421Z,0
2018-05-13T02:02:54.007Z,0
2018-05-13T02:03:54.582Z,0
2018-05-13T02:04:55.157Z,0
2018-05-13T02:05:55.734Z,0
2018-05-13T02:06:56.309Z,0
2018-05-13T02:07:56.884Z,0
2018-05-13T02:08:57.455Z,0
2018-05-13T02:09:58.030Z,0
2018-05-13T02:10:58.604Z,0
2018-05-13T02:11:59.182Z,0
2018-05-13T02:12:59.753Z,0
2018-05-13T02:14:00.339Z,0
2018-05-13T02:15:00.929Z,0
2018-05-13T02:16:01.502Z,0
2018-05-13T02:17:02.086Z,0
2018-05-13T02:18:02.661Z,0
2018-05-13T02:19:03.236Z,0
2018-05-13T02:20:03.810Z,0
2018-05-13T02:21:04.385Z,0
2018-05-13T02:22:04.960Z,0
2018-05-13T02:23:05.532Z,0
2018-05-13T02:24:06.107Z,0
2018-05-13T02:25:06.680Z,0
2018-05-13T02:26:07.255Z,0
2018-05-13T02:27:07.829Z,0
2018-05-13T02:28:08.404Z,0
2018-05-13T02:29:08.980Z,0
2018-05-13T02:30:09.564Z,0
2018-05-13T02:31:10.140Z,0
2018-05-13T02:32:10.721Z,0
2018-05-13T02:33:11.296Z,0
2018-05-13T02:34:11.869Z,0
2018-05-13T02:35:12.454Z,0
2018-05-13T02:36:13.032Z,0
2018-05-13T02:37:13.604Z,0
2018-05-13T02:38:14.178Z,0
2018-05-13T02:39:14.753Z,0
2018-05-13T02:40:15.327Z,0
2018-05-13T02:41:15.900Z,0
2018-05-13T02:42:16.474Z,0
2018-05-13T02:43:17.048Z,0
2018-05-13T02:44:17.622Z,0
2018-05-13T02:45:18.198Z,0
2018-05-13T02:46:18.777Z,0
2018-05-13T02:47:19.351Z,0
2018-05-13T02:48:19.920Z,0
2018-05-13T02:49:20.496Z,0
2018-05-13T02:50:21.069Z,0
2018-05-13T02:51:21.643Z,0
2018-05-13T02:52:22.218Z,0
2018-05-13T02:53:22.791Z,0
2018-05-13T02:54:23.364Z,0
2018-05-13T02:55:23.945Z,0
2018-05-13T02:56:24.526Z,0
2018-05-13T02:57:25.090Z,0
2018-05-13T02:58:25.666Z,0
2018-05-13T02:59:26.239Z,0
2018-05-13T03:00:26.825Z,0
2018-05-13T03:01:27.418Z,0
2018-05-13T03:02:27.975Z,0
2018-05-13T03:03:28.551Z,0
2018-05-13T03:04:29.130Z,0
2018-05-13T03:05:29.699Z,0
2018-05-13T03:06:30.273Z,0
2018-05-13T03:07:30.848Z,0
2018-05-13T03:08:31.432Z,0
2018-05-13T03:09:32.008Z,0
2018-05-13T03:10:32.591Z,0
2018-05-13T03:11:33.166Z,0
2018-05-13T03:12:33.745Z,0
2018-05-13T03:13:34.324Z,0
2018-05-13T03:14:34.897Z,0
2018-05-13T03:15:35.483Z,0
2018-05-13T03:16:36.056Z,0
2018-05-13T03:17:36.630Z,0
2018-05-13T03:18:37.203Z,0
2018-05-13T03:19:37.777Z,0
2018-05-13T03:20:38.350Z,0
2018-05-13T03:21:38.930Z,0
2018-05-13T03:22:39.512Z,0
2018-05-13T03:23:40.083Z,0
2018-05-13T03:24:40.657Z,0
2018-05-13T03:25:41.231Z,0
2018-05-13T03:26:41.804Z,0
2018-05-13T03:27:42.387Z,0
2018-05-13T03:28:42.962Z,0
2018-05-13T03:29:43.535Z,0
2018-05-13T03:30:44.109Z,0
2018-05-13T03:31:44.681Z,0
2018-05-13T03:32:45.254Z,0
2018-05-13T03:33:45.832Z,0
2018-05-13T03:34:46.400Z,0
2018-05-13T03:35:46.971Z,0
2018-05-13T03:36:47.545Z,0
2018-05-13T03:37:48.120Z,0
2018-05-13T03:38:48.691Z,4
2018-05-13T03:39:49.263Z,0
2018-05-13T03:40:49.835Z,0
2018-05-13T03:41:50.419Z,4
2018-05-13T03:42:50.992Z,4
2018-05-13T03:43:51.567Z,4
2018-05-13T03:44:52.153Z,4
2018-05-13T03:45:52.725Z,0
2018-05-13T03:46:53.300Z,4
2018-05-13T03:47:53.873Z,0
2018-05-13T03:48:54.447Z,4
2018-05-13T03:49:55.027Z,4
2018-05-13T03:50:55.594Z,0
2018-05-13T03:51:56.174Z,4
2018-05-13T03:52:56.739Z,4
2018-05-13T03:53:57.312Z,0
2018-05-13T03:54:57.885Z,0
2018-05-13T03:55:58.458Z,4
2018-05-13T03:56:59.029Z,0
2018-05-13T03:57:59.602Z,0
2018-05-13T03:59:00.176Z,0
2018-05-13T04:00:00.747Z,4
2018-05-13T04:01:01.320Z,4
2018-05-13T04:02:01.894Z,0
2018-05-13T04:03:02.476Z,4
2018-05-13T04:04:03.051Z,4
2018-05-13T04:05:03.625Z,4
2018-05-13T04:06:04.205Z,8
2018-05-13T04:07:04.777Z,4
2018-05-13T04:08:05.349Z,8
2018-05-13T04:09:05.934Z,4
2018-05-13T04:10:06.506Z,8
2018-05-13T04:11:07.080Z,4
2018-05-13T04:12:07.652Z,8
2018-05-13T04:13:08.227Z,8
2018-05-13T04:14:08.798Z,8
2018-05-13T04:15:09.372Z,12
2018-05-13T04:16:09.946Z,12
2018-05-13T04:17:10.520Z,12
2018-05-13T04:18:11.092Z,8
2018-05-13T04:19:11.665Z,12
2018-05-13T04:20:12.238Z,12
2018-05-13T04:21:12.812Z,12
2018-05-13T04:22:13.384Z,12
2018-05-13T04:23:13.958Z,12
2018-05-13T04:24:14.532Z,16
2018-05-13T04:25:15.113Z,16
2018-05-13T04:26:15.693Z,20
2018-05-13T04:27:16.267Z,20
2018-05-13T04:28:16.840Z,16
2018-05-13T04:29:17.425Z,16
2018-05-13T04:30:18.001Z,16
2018-05-13T04:31:18.578Z,16
2018-05-13T04:32:19.148Z,16
2018-05-13T04:33:19.793Z,12
2018-05-13T04:34:20.296Z,12
2018-05-13T04:35:20.870Z,12
2018-05-13T04:36:21.443Z,8
2018-05-13T04:37:22.019Z,8
2018-05-13T04:38:22.600Z,12
2018-05-13T04:39:23.176Z,8
2018-05-13T04:40:23.748Z,12
2018-05-13T04:41:24.322Z,12
2018-05-13T04:42:24.896Z,12
2018-05-13T04:43:25.470Z,8
2018-05-13T04:44:26.055Z,8
2018-05-13T04:45:26.632Z,12
2018-05-13T04:46:27.217Z,12
2018-05-13T04:47:27.793Z,20
2018-05-13T04:48:28.368Z,20
2018-05-13T04:49:28.945Z,20
2018-05-13T04:50:29.518Z,20
2018-05-13T04:51:30.103Z,24
2018-05-13T04:52:30.677Z,28
2018-05-13T04:53:31.252Z,32
2018-05-13T04:54:31.832Z,40
2018-05-13T04:55:32.401Z,44
2018-05-13T04:56:32.986Z,52
2018-05-13T04:57:33.573Z,60
2018-05-13T04:58:34.146Z,68
2018-05-13T04:59:34.720Z,76
2018-05-13T05:00:35.296Z,88
2018-05-13T05:01:35.870Z,96
2018-05-13T05:02:36.446Z,104
2018-05-13T05:03:37.025Z,116
2018-05-13T05:04:37.611Z,132
2018-05-13T05:05:38.187Z,140
2018-05-13T05:06:38.765Z,156
2018-05-13T05:07:39.338Z,168
2018-05-13T05:08:39.913Z,176
2018-05-13T05:09:40.499Z,188
2018-05-13T05:10:41.075Z,192
2018-05-13T05:11:41.654Z,204
2018-05-13T05:12:42.224Z,212
2018-05-13T05:13:42.803Z,220
2018-05-13T05:14:43.388Z,224
2018-05-13T05:15:43.963Z,228
2018-05-13T05:16:44.540Z,228
2018-05-13T05:17:45.117Z,232
2018-05-13T05:18:45.694Z,232
2018-05-13T05:19:46.274Z,232
2018-05-13T05:20:46.848Z,232
2018-05-13T05:21:47.424Z,232
2018-05-13T05:22:48.003Z,236
2018-05-13T05:23:48.579Z,236
2018-05-13T05:24:49.158Z,236
2018-05-13T05:25:49.734Z,240
2018-05-13T05:26:50.310Z,240
2018-05-13T05:27:50.891Z,240
2018-05-13T05:28:51.466Z,244
2018-05-13T05:29:52.043Z,240
2018-05-13T05:30:52.622Z,244
2018-05-13T05:31:53.208Z,244
2018-05-13T05:32:53.783Z,240
2018-05-13T05:33:54.360Z,240
2018-05-13T05:34:54.937Z,240
2018-05-13T05:35:55.520Z,236
2018-05-13T05:36:56.091Z,240
2018-05-13T05:37:56.669Z,252
2018-05-13T05:38:57.245Z,244
2018-05-13T05:39:57.821Z,244
2018-05-13T05:40:58.409Z,248
2018-05-13T05:41:58.976Z,252
2018-05-13T05:42:59.553Z,256
2018-05-13T05:44:00.129Z,264
2018-05-13T05:45:00.706Z,264
2018-05-13T05:46:01.295Z,272
2018-05-13T05:47:01.878Z,268
2018-05-13T05:48:02.449Z,268
2018-05-13T05:49:03.036Z,272
2018-05-13T05:50:03.612Z,272
2018-05-13T05:51:04.189Z,276
2018-05-13T05:52:04.768Z,288
2018-05-13T05:53:05.344Z,296
2018-05-13T05:54:05.920Z,300
2018-05-13T05:55:06.496Z,304
2018-05-13T05:56:07.073Z,308
2018-05-13T05:57:07.651Z,292
2018-05-13T05:58:08.230Z,300
2018-05-13T05:59:08.812Z,300
2018-05-13T06:00:09.384Z,300
2018-05-13T06:01:09.973Z,304
2018-05-13T06:02:10.549Z,308
2018-05-13T06:03:11.181Z,312
2018-05-13T06:04:11.717Z,312
2018-05-13T06:05:12.303Z,316
2018-05-13T06:06:12.882Z,328
2018-05-13T06:07:13.459Z,336
2018-05-13T06:08:14.035Z,340
2018-05-13T06:09:14.624Z,340
2018-05-13T06:10:15.202Z,336
2018-05-13T06:11:15.779Z,332
2018-05-13T06:12:16.452Z,332
2018-05-13T06:13:16.940Z,328
2018-05-13T06:14:17.517Z,328
2018-05-13T06:15:18.093Z,332
2018-05-13T06:16:18.671Z,340
2018-05-13T06:17:19.249Z,356
2018-05-13T06:18:19.827Z,360
2018-05-13T06:19:20.403Z,372
2018-05-13T06:20:20.980Z,356
2018-05-13T06:21:21.558Z,360
2018-05-13T06:22:22.138Z,376
2018-05-13T06:23:22.714Z,380
2018-05-13T06:24:23.291Z,388
2018-05-13T06:25:23.867Z,388
2018-05-13T06:26:24.443Z,416
2018-05-13T06:27:25.025Z,436
2018-05-13T06:28:25.611Z,424
2018-05-13T06:29:26.188Z,392
2018-05-13T06:30:26.766Z,396
2018-05-13T06:31:27.345Z,408
2018-05-13T06:32:27.924Z,428
2018-05-13T06:33:28.510Z,524
2018-05-13T06:34:29.079Z,548
2018-05-13T06:35:29.658Z,560
2018-05-13T06:36:30.237Z,552
2018-05-13T06:37:30.813Z,584
2018-05-13T06:38:31.391Z,608
2018-05-13T06:39:32.015Z,604
2018-05-13T06:40:32.550Z,580
2018-05-13T06:41:33.139Z,528
2018-05-13T06:42:33.718Z,520
2018-05-13T06:43:34.297Z,580
2018-05-13T06:44:34.875Z,620
2018-05-13T06:45:35.455Z,568
2018-05-13T06:46:36.035Z,604
2018-05-13T06:47:36.617Z,652
2018-05-13T06:48:37.193Z,648
2018-05-13T06:49:37.774Z,636
2018-05-13T06:50:38.352Z,676
2018-05-13T06:51:38.933Z,660
2018-05-13T06:52:39.511Z,676
2018-05-13T06:53:40.093Z,680
2018-05-13T06:54:40.681Z,680
2018-05-13T06:55:41.261Z,616
2018-05-13T06:56:41.841Z,604
2018-05-13T06:57:42.431Z,656
2018-05-13T06:58:43.013Z,552
2018-05-13T06:59:43.591Z,544
2018-05-13T07:00:44.175Z,560
2018-05-13T07:01:44.749Z,572
2018-05-13T07:02:45.339Z,568
2018-05-13T07:03:45.918Z,648
2018-05-13T07:04:46.524Z,676
2018-05-13T07:05:47.077Z,672
2018-05-13T07:06:47.655Z,672
2018-05-13T07:07:48.234Z,672
2018-05-13T07:08:48.814Z,660
2018-05-13T07:09:49.396Z,660
2018-05-13T07:10:49.985Z,664
2018-05-13T07:11:50.565Z,648
2018-05-13T07:12:51.156Z,640
2018-05-13T07:13:51.736Z,508
2018-05-13T07:14:52.327Z,572
2018-05-13T07:15:52.905Z,588
2018-05-13T07:16:53.485Z,516
2018-05-13T07:17:54.066Z,556
2018-05-13T07:18:54.644Z,584
2018-05-13T07:19:55.227Z,644
2018-05-13T07:20:55.810Z,632
2018-05-13T07:21:56.403Z,644
2018-05-13T07:22:56.992Z,656
2018-05-13T07:23:57.569Z,648
2018-05-13T07:24:58.148Z,656
2018-05-13T07:25:58.729Z,672
2018-05-13T07:26:59.315Z,684
2018-05-13T07:27:59.889Z,676
2018-05-13T07:29:00.469Z,676
2018-05-13T07:30:01.048Z,684
2018-05-13T07:31:01.627Z,680
2018-05-13T07:32:02.208Z,684
2018-05-13T07:33:02.787Z,684
2018-05-13T07:34:03.366Z,680
2018-05-13T07:35:03.955Z,680
2018-05-13T07:36:04.530Z,676
2018-05-13T07:37:05.107Z,684
2018-05-13T07:38:05.687Z,680
2018-05-13T07:39:06.266Z,680
2018-05-13T07:40:06.847Z,668
2018-05-13T07:41:07.438Z,660
2018-05-13T07:42:08.030Z,652
2018-05-13T07:43:08.620Z,644
2018-05-13T07:44:09.200Z,648
2018-05-13T07:45:09.781Z,644
2018-05-13T07:46:10.362Z,620
2018-05-13T07:47:10.941Z,628
2018-05-13T07:48:11.521Z,624
2018-05-13T07:49:12.102Z,604
2018-05-13T07:50:12.685Z,604
2018-05-13T07:51:13.265Z,616
2018-05-13T07:52:13.845Z,636
2018-05-13T07:53:14.429Z,652
2018-05-13T07:54:15.018Z,652
2018-05-13T07:55:15.599Z,656
2018-05-13T07:56:16.179Z,652
2018-05-13T07:57:16.759Z,664
2018-05-13T07:58:17.339Z,668
2018-05-13T07:59:17.922Z,672
2018-05-13T08:00:18.501Z,664
2018-05-13T08:01:19.082Z,664
2018-05-13T08:02:19.661Z,648
2018-05-13T08:03:20.242Z,640
2018-05-13T08:04:20.824Z,640
2018-05-13T08:05:21.404Z,644
2018-05-13T08:06:21.985Z,652
2018-05-13T08:07:22.565Z,648
2018-05-13T08:08:23.157Z,656
2018-05-13T08:09:23.745Z,656
2018-05-13T08:10:24.320Z,660
2018-05-13T08:11:24.900Z,648
2018-05-13T08:12:25.479Z,656
2018-05-13T08:13:26.061Z,648
2018-05-13T08:14:26.645Z,652
2018-05-13T08:15:27.222Z,676
2018-05-13T08:16:27.802Z,716
2018-05-13T08:17:28.384Z,728
2018-05-13T08:18:28.965Z,748
2018-05-13T08:19:29.545Z,752
2018-05-13T08:20:30.306Z,748
2018-05-13T08:21:30.706Z,652
2018-05-13T08:22:31.287Z,748
2018-05-13T08:23:31.875Z,792
2018-05-13T08:24:32.454Z,788
2018-05-13T08:25:33.045Z,800
2018-05-13T08:26:33.621Z,776
2018-05-13T08:27:34.213Z,688
2018-05-13T08:28:34.794Z,668
2018-05-13T08:29:35.375Z,692
2018-05-13T08:30:35.956Z,672
2018-05-13T08:31:36.546Z,716
2018-05-13T08:32:37.129Z,728
2018-05-13T08:33:37.710Z,708
2018-05-13T08:34:38.289Z,692
2018-05-13T08:35:38.870Z,688
2018-05-13T08:36:39.456Z,676
2018-05-13T08:37:40.034Z,664
2018-05-13T08:38:40.614Z,664
2018-05-13T08:39:41.195Z,684
2018-05-13T08:40:41.777Z,720
2018-05-13T08:41:42.360Z,744
2018-05-13T08:42:42.952Z,744
2018-05-13T08:43:43.532Z,736
2018-05-13T08:44:44.124Z,728
2018-05-13T08:45:44.709Z,724
2018-05-13T08:46:45.288Z,740
2018-05-13T08:47:45.868Z,728
2018-05-13T08:48:46.453Z,744
2018-05-13T08:49:47.032Z,744
2018-05-13T08:50:47.613Z,744
2018-05-13T08:51:48.193Z,748
2018-05-13T08:52:48.775Z,752
2018-05-13T08:53:49.356Z,748
2018-05-13T08:54:49.937Z,752
2018-05-13T08:55:50.521Z,744
2018-05-13T08:56:51.098Z,760
2018-05-13T08:57:51.679Z,768
2018-05-13T08:58:52.264Z,772
2018-05-13T08:59:52.841Z,776
2018-05-13T09:00:53.421Z,780
2018-05-13T09:01:54.002Z,768
2018-05-13T09:02:54.584Z,768
2018-05-13T09:03:55.165Z,768
2018-05-13T09:04:55.748Z,760
2018-05-13T09:05:56.334Z,780
2018-05-13T09:06:56.909Z,788
2018-05-13T09:07:57.490Z,808
2018-05-13T09:08:58.070Z,808
2018-05-13T09:09:58.650Z,804
2018-05-13T09:10:59.230Z,796
2018-05-13T09:11:59.816Z,800
2018-05-13T09:13:00.405Z,780
2018-05-13T09:14:01.084Z,784
2018-05-13T09:15:01.576Z,688
2018-05-13T09:16:02.165Z,700
2018-05-13T09:17:02.747Z,700
2018-05-13T09:18:03.345Z,800
2018-05-13T09:19:03.937Z,736
2018-05-13T09:20:04.525Z,784
2018-05-13T09:21:05.097Z,816
2018-05-13T09:22:05.688Z,832
2018-05-13T09:23:06.280Z,840
2018-05-13T09:24:06.872Z,812
2018-05-13T09:25:07.454Z,808
2018-05-13T09:26:08.035Z,620
2018-05-13T09:27:08.615Z,648
2018-05-13T09:28:09.197Z,732
2018-05-13T09:29:09.779Z,836
2018-05-13T09:30:10.361Z,856
2018-05-13T09:31:10.942Z,800
2018-05-13T09:32:11.523Z,736
2018-05-13T09:33:12.108Z,668
2018-05-13T09:34:12.685Z,656
2018-05-13T09:35:13.267Z,684
2018-05-13T09:36:13.850Z,724
2018-05-13T09:37:14.441Z,776
2018-05-13T09:38:15.023Z,900
2018-05-13T09:39:15.619Z,916
2018-05-13T09:40:16.207Z,900
2018-05-13T09:41:16.790Z,880
2018-05-13T09:42:17.380Z,884
2018-05-13T09:43:17.962Z,872
2018-05-13T09:44:18.554Z,844
2018-05-13T09:45:19.135Z,852
2018-05-13T09:46:19.716Z,864
2018-05-13T09:47:20.299Z,848
2018-05-13T09:48:20.880Z,840
2018-05-13T09:49:21.463Z,856
2018-05-13T09:50:22.043Z,888
2018-05-13T09:51:22.636Z,912
2018-05-13T09:52:23.207Z,928
2018-05-13T09:53:23.788Z,928
2018-05-13T09:54:24.369Z,932
2018-05-13T09:55:24.953Z,908
2018-05-13T09:56:25.535Z,892
2018-05-13T09:57:26.116Z,880
2018-05-13T09:58:26.701Z,884
2018-05-13T09:59:27.289Z,892
2018-05-13T10:00:27.870Z,904
2018-05-13T10:01:28.464Z,912
2018-05-13T10:02:29.043Z,900
2018-05-13T10:03:29.636Z,928
2018-05-13T10:04:30.217Z,928
2018-05-13T10:05:30.810Z,948
2018-05-13T10:06:31.402Z,968
2018-05-13T10:07:31.983Z,936
2018-05-13T10:08:32.563Z,876
2018-05-13T10:09:33.237Z,840
2018-05-13T10:10:33.726Z,924
2018-05-13T10:11:34.311Z,940
2018-05-13T10:12:34.891Z,960
2018-05-13T10:13:35.554Z,964
2018-05-13T10:14:36.060Z,976
2018-05-13T10:15:36.642Z,984
2018-05-13T10:16:37.221Z,988
2018-05-13T10:17:37.815Z,1024
2018-05-13T10:18:38.398Z,964
2018-05-13T10:19:39.012Z,856
2018-05-13T10:20:39.561Z,984
2018-05-13T10:21:40.155Z,1092
2018-05-13T10:22:40.738Z,1100
2018-05-13T10:23:41.321Z,1092
2018-05-13T10:24:41.952Z,1060
2018-05-13T10:25:42.534Z,1020
2018-05-13T10:26:43.115Z,944
2018-05-13T10:27:43.698Z,836
2018-05-13T10:28:44.290Z,824
2018-05-13T10:29:44.885Z,820
2018-05-13T10:30:45.466Z,844
2018-05-13T10:31:46.050Z,844
2018-05-13T10:32:46.634Z,864
2018-05-13T10:33:47.213Z,852
2018-05-13T10:34:47.794Z,932
2018-05-13T10:35:48.376Z,992
2018-05-13T10:36:48.960Z,1068
2018-05-13T10:37:49.542Z,1136
2018-05-13T10:38:50.123Z,1140
2018-05-13T10:39:50.709Z,1168
2018-05-13T10:40:51.290Z,1124
2018-05-13T10:41:51.872Z,1008
2018-05-13T10:42:52.453Z,968
2018-05-13T10:43:53.038Z,840
2018-05-13T10:44:53.628Z,1000
2018-05-13T10:45:54.212Z,1136
2018-05-13T10:46:54.796Z,956
2018-05-13T10:47:55.420Z,904
2018-05-13T10:48:55.969Z,900
2018-05-13T10:49:56.550Z,948
2018-05-13T10:50:57.132Z,840
2018-05-13T10:51:57.721Z,820
2018-05-13T10:52:58.297Z,840
2018-05-13T10:53:58.888Z,808
2018-05-13T10:54:59.481Z,788
2018-05-13T10:56:00.065Z,792
2018-05-13T10:57:00.646Z,844
2018-05-13T10:58:01.227Z,884
2018-05-13T10:59:01.810Z,908
2018-05-13T11:00:02.391Z,904
2018-05-13T11:01:02.977Z,864
2018-05-13T11:02:03.555Z,848
2018-05-13T11:03:04.137Z,860
2018-05-13T11:04:04.721Z,868
2018-05-13T11:05:05.301Z,880
2018-05-13T11:06:05.937Z,884
2018-05-13T11:07:06.554Z,916
2018-05-13T11:08:07.125Z,912
2018-05-13T11:09:07.741Z,892
2018-05-13T11:10:08.379Z,912
2018-05-13T11:11:08.905Z,1024
2018-05-13T11:12:09.488Z,1036
2018-05-13T11:13:10.082Z,1124
2018-05-13T11:14:10.666Z,1140
2018-05-13T11:15:11.249Z,1128
2018-05-13T11:16:11.845Z,1116
2018-05-13T11:17:12.430Z,1116
2018-05-13T11:18:13.038Z,1108
2018-05-13T11:19:13.619Z,1088
2018-05-13T11:20:14.229Z,1080
2018-05-13T11:21:14.784Z,1008
2018-05-13T11:22:15.395Z,996
2018-05-13T11:23:16.019Z,960
2018-05-13T11:24:16.637Z,1024
2018-05-13T11:25:17.246Z,1120
2018-05-13T11:26:17.883Z,1088
2018-05-13T11:27:18.468Z,1088
2018-05-13T11:28:19.049Z,1032
2018-05-13T11:29:19.632Z,988
2018-05-13T11:30:20.213Z,1004
2018-05-13T11:31:20.796Z,1012
2018-05-13T11:32:21.377Z,932
2018-05-13T11:33:21.961Z,932
2018-05-13T11:34:22.549Z,976
2018-05-13T11:35:23.124Z,948
2018-05-13T11:36:23.729Z,996
2018-05-13T11:37:24.315Z,984
2018-05-13T11:38:24.922Z,968
2018-05-13T11:39:25.556Z,1136
2018-05-13T11:40:26.100Z,932
2018-05-13T11:41:26.685Z,1028
2018-05-13T11:42:27.305Z,920
2018-05-13T11:43:27.888Z,904
2018-05-13T11:44:28.468Z,908
2018-05-13T11:45:29.099Z,912
2018-05-13T11:46:29.705Z,904
2018-05-13T11:47:30.287Z,872
2018-05-13T11:48:30.870Z,880
2018-05-13T11:49:31.451Z,816
2018-05-13T11:50:32.033Z,744
2018-05-13T11:51:32.617Z,712
2018-05-13T11:52:33.201Z,712
2018-05-13T11:53:33.792Z,708
2018-05-13T11:54:34.375Z,696
2018-05-13T11:55:34.958Z,708
2018-05-13T11:56:35.543Z,732
2018-05-13T11:57:36.119Z,724
2018-05-13T11:58:36.700Z,764
2018-05-13T11:59:37.293Z,812
2018-05-13T12:00:37.878Z,808
2018-05-13T12:01:38.458Z,736
2018-05-13T12:02:39.042Z,804
2018-05-13T12:03:39.626Z,712
2018-05-13T12:04:40.203Z,448
2018-05-13T12:05:40.796Z,340
2018-05-13T12:06:41.382Z,272
2018-05-13T12:07:41.970Z,228
2018-05-13T12:08:42.550Z,200
2018-05-13T12:09:43.132Z,180
2018-05-13T12:10:43.719Z,172
2018-05-13T12:11:44.294Z,160
2018-05-13T12:12:44.879Z,160
2018-05-13T12:13:45.465Z,168
2018-05-13T12:14:46.047Z,184
2018-05-13T12:15:46.636Z,208
2018-05-13T12:16:47.218Z,232
2018-05-13T12:17:47.810Z,260
2018-05-13T12:18:48.392Z,284
2018-05-13T12:19:48.974Z,300
2018-05-13T12:20:49.555Z,316
2018-05-13T12:21:50.137Z,328
2018-05-13T12:22:50.729Z,348
2018-05-13T12:23:51.305Z,356
2018-05-13T12:24:51.886Z,368
2018-05-13T12:25:52.469Z,368
2018-05-13T12:26:53.049Z,360
2018-05-13T12:27:53.629Z,360
2018-05-13T12:28:54.290Z,360
2018-05-13T12:29:54.794Z,352
2018-05-13T12:30:55.370Z,328
2018-05-13T12:31:55.950Z,316
2018-05-13T12:32:56.530Z,308
2018-05-13T12:33:57.111Z,308
2018-05-13T12:34:57.691Z,312
2018-05-13T12:35:58.283Z,308
2018-05-13T12:36:58.866Z,308
2018-05-13T12:37:59.509Z,272
2018-05-13T12:39:00.026Z,240
2018-05-13T12:40:00.616Z,212
2018-05-13T12:41:01.200Z,204
2018-05-13T12:42:01.783Z,204
2018-05-13T12:43:02.360Z,208
2018-05-13T12:44:02.938Z,196
2018-05-13T12:45:03.517Z,184
2018-05-13T12:46:04.100Z,172
2018-05-13T12:47:04.675Z,156
2018-05-13T12:48:05.255Z,136
2018-05-13T12:49:05.832Z,128
2018-05-13T12:50:06.415Z,132
2018-05-13T12:51:06.992Z,140
2018-05-13T12:52:07.569Z,156
2018-05-13T12:53:08.151Z,176
2018-05-13T12:54:08.730Z,200
2018-05-13T12:55:09.311Z,248
2018-05-13T12:56:09.973Z,304
2018-05-13T12:57:10.479Z,332
2018-05-13T12:58:11.059Z,376
2018-05-13T12:59:11.638Z,456
2018-05-13T13:00:12.219Z,520
2018-05-13T13:01:12.798Z,560
2018-05-13T13:02:13.380Z,616
2018-05-13T13:03:13.960Z,684
2018-05-13T13:04:14.555Z,804
2018-05-13T13:05:15.130Z,1036
2018-05-13T13:06:15.733Z,1104
2018-05-13T13:07:16.290Z,1152
2018-05-13T13:08:16.872Z,1260
2018-05-13T13:09:17.452Z,1320
2018-05-13T13:10:18.033Z,1360
2018-05-13T13:11:18.614Z,1488
2018-05-13T13:12:19.194Z,1552
2018-05-13T13:13:19.773Z,1528
2018-05-13T13:14:20.355Z,1572
2018-05-13T13:15:20.935Z,1644
2018-05-13T13:16:21.515Z,1720
2018-05-13T13:17:22.094Z,1720
2018-05-13T13:18:22.675Z,1664
2018-05-13T13:19:23.258Z,1600
2018-05-13T13:20:23.837Z,1500
2018-05-13T13:21:24.418Z,1480
2018-05-13T13:22:25.009Z,1568
2018-05-13T13:23:25.590Z,1600
2018-05-13T13:24:26.171Z,1628
2018-05-13T13:25:26.758Z,1604
2018-05-13T13:26:27.332Z,1440
2018-05-13T13:27:27.923Z,1364
2018-05-13T13:28:28.504Z,1308
2018-05-13T13:29:29.091Z,1252
2018-05-13T13:30:29.698Z,1204
2018-05-13T13:31:30.273Z,1180
2018-05-13T13:32:30.852Z,1172
2018-05-13T13:33:31.433Z,1172
2018-05-13T13:34:32.012Z,1176
2018-05-13T13:35:32.594Z,1176
2018-05-13T13:36:33.181Z,1188
2018-05-13T13:37:33.760Z,1164
2018-05-13T13:38:34.336Z,1156
2018-05-13T13:39:34.920Z,1124
2018-05-13T13:40:35.500Z,1024
2018-05-13T13:41:36.083Z,916
2018-05-13T13:42:36.669Z,812
2018-05-13T13:43:37.250Z,736
2018-05-13T13:44:37.839Z,648
2018-05-13T13:45:38.429Z,568
2018-05-13T13:46:39.013Z,496
2018-05-13T13:47:39.588Z,420
2018-05-13T13:48:40.167Z,368
2018-05-13T13:49:40.751Z,340
2018-05-13T13:50:41.325Z,328
2018-05-13T13:51:41.904Z,320
2018-05-13T13:52:42.485Z,296
2018-05-13T13:53:43.064Z,264
2018-05-13T13:54:43.643Z,224
2018-05-13T13:55:44.221Z,188
2018-05-13T13:56:44.799Z,160
2018-05-13T13:57:45.378Z,140
2018-05-13T13:58:45.967Z,132
2018-05-13T13:59:46.545Z,128
2018-05-13T14:00:47.124Z,124
2018-05-13T14:01:47.702Z,124
2018-05-13T14:02:48.279Z,124
2018-05-13T14:03:48.858Z,128
2018-05-13T14:04:49.446Z,132
2018-05-13T14:05:50.024Z,136
2018-05-13T14:06:50.602Z,144
2018-05-13T14:07:51.181Z,156
2018-05-13T14:08:51.754Z,160
2018-05-13T14:09:52.357Z,168
2018-05-13T14:10:52.907Z,176